Antonia B — V2DF9 — position and weather

sailwx.info

Track history (hours):
 
Tides and Currents Weather Stations Pressure Air Temp Water Temp Dewpoint Dewpoint Depression Visibility Wind Speed Wind Dir Waves Ship Positions

Antonia B

Last reported at 2017-Nov-16 12:36 UTC. Time now 2017-Nov-18 10:17 UTC.
Position N 36°33' W 009°12'.

Length 97 m; draft 6.7 m.

Type: Cargo ship. MMSI: 305201000.

Date/timePositionNaut miles runAvg speedWind from/ knotsBaromVisibWave heightAir tempDewpointWater temp
2017-Nov-16 12:36N 36°33' W 009°12'211.9
2017-Nov-16 12:27N 36°34' W 009°14'511.3
2017-Nov-16 11:58N 36°37' W 009°20'2211.8
2017-Nov-16 10:06N 36°55' W 009°34'112.3
2017-Nov-16 10:00N 36°57' W 009°34'612.3
2017-Nov-16 09:30N 37°03' W 009°36'612.2
2017-Nov-16 08:59N 37°09' W 009°38'1712.2
2017-Nov-16 07:35N 37°25' W 009°43'112.3
2017-Nov-16 07:30N 37°27' W 009°43'612.2
2017-Nov-16 07:00N 37°32' W 009°45'812.5
2017-Nov-16 06:21N 37°40' W 009°48'512.4
2017-Nov-16 05:58N 37°45' W 009°49'912.4
2017-Nov-16 05:13N 37°54' W 009°52'312.1
2017-Nov-16 05:00N 37°56' W 009°53'612.3
2017-Nov-16 04:30N 38°02' W 009°55'612.2
2017-Nov-16 04:01N 38°08' W 009°57'712.4
2017-Nov-16 03:25N 38°15' W 009°59'512.5
2017-Nov-16 03:00N 38°20' W 009°60'612.4
2017-Nov-16 02:30N 38°26' W 010°01'612.1
2017-Nov-16 02:00N 38°32' W 010°03'611.7
2017-Nov-16 01:30N 38°38' W 010°05'612.2
2017-Nov-16 01:00N 38°44' W 010°06'612.0
2017-Nov-16 00:30N 38°50' W 010°06'612.1
2017-Nov-16 00:00N 38°56' W 010°06'611.9
2017-Nov-15 23:30N 39°02' W 010°07'612.0
2017-Nov-15 23:00N 39°08' W 010°07'612.2
2017-Nov-15 22:30N 39°14' W 010°07'612.1
2017-Nov-15 22:00N 39°20' W 010°07'612.4
2017-Nov-15 21:30N 39°26' W 010°07'612.3
2017-Nov-15 21:00N 39°33' W 010°07'612.3
2017-Nov-15 20:30N 39°39' W 010°07'812.1
2017-Nov-15 19:52N 39°46' W 010°07'512.3
2017-Nov-15 19:29N 39°51' W 010°07'49011.6
2017-Nov-14 01:09N 47°39' W 006°49'611.2
2017-Nov-14 00:38N 47°44' W 006°45'211.0
2017-Nov-14 00:27N 47°46' W 006°43'510.9
2017-Nov-13 23:58N 47°51' W 006°40'510.8
2017-Nov-13 23:30N 47°55' W 006°36'910.8
2017-Nov-13 22:40N 48°03' W 006°31'27811.2
2017-Nov-12 21:46N 50°27' W 000°26'312.2
2017-Nov-12 21:31N 50°28' W 000°21'611.9
2017-Nov-12 21:01N 50°29' W 000°12'611.7
2017-Nov-12 20:30N 50°31' W 000°04'611.6
2017-Nov-12 20:00N 50°33' E 000°05'611.3
2017-Nov-12 19:31N 50°35' E 000°14'611.1
2017-Nov-12 19:01N 50°36' E 000°22'510.8
2017-Nov-12 18:30N 50°38' E 000°30'510.4
2017-Nov-12 18:00N 50°40' E 000°37'510.8
2017-Nov-12 17:30N 50°43' E 000°44'510.7
2017-Nov-12 17:00N 50°46' E 000°51'511.0
2017-Nov-12 16:31N 50°49' E 000°58'611.2
2017-Nov-12 16:00N 50°53' E 001°06'611.6
2017-Nov-12 15:30N 50°57' E 001°13'612.2
2017-Nov-12 15:00N 51°01' E 001°20'612.8
2017-Nov-12 14:30N 51°05' E 001°28'612.9
2017-Nov-12 14:01N 51°08' E 001°36'612.2
2017-Nov-12 13:31N 51°13' E 001°43'611.7
2017-Nov-12 13:01N 51°17' E 001°48'611.8
2017-Nov-12 12:30N 51°23' E 001°52'611.1
2017-Nov-12 12:00N 51°28' E 001°57'510.5
2017-Nov-12 11:30N 51°32' E 002°02'510.1
2017-Nov-12 11:00N 51°35' E 002°08'5 9.9
2017-Nov-12 10:27N 51°39' E 002°13'6 9.6
2017-Nov-12 09:53N 51°44' E 002°19'238 9.3
2017-Nov-11 08:17N 54°01' E 007°41'3 8.8
2017-Nov-11 08:00N 54°01' E 007°46'4 8.7
2017-Nov-11 07:30N 54°01' E 007°53'4 8.5
2017-Nov-11 07:00N 54°01' E 007°60'5 9.0
2017-Nov-11 06:29N 54°01' E 008°08'5 9.3
2017-Nov-11 05:59N 54°00' E 008°16'510.2
2017-Nov-11 05:29N 53°59' E 008°24'510.4
2017-Nov-11 05:00N 53°58' E 008°33'4 8.7
2017-Nov-11 04:30N 53°56' E 008°39'2 4.5
2017-Nov-11 04:00N 53°54' E 008°41'4 7.7
2017-Nov-11 03:30N 53°51' E 008°45'4 8.0
2017-Nov-11 03:00N 53°50' E 008°52'4 8.9
2017-Nov-11 02:30N 53°51' E 008°59'5 9.7
2017-Nov-11 02:00N 53°53' E 009°07'1 2.4
2017-Nov-11 01:30N 53°54' E 009°09'0 0.0
2017-Nov-11 00:57N 53°54' E 009°09'1 1.9
2017-Nov-11 00:30N 53°54' E 009°10'4 7.7
2017-Nov-11 00:00N 53°57' E 009°14'4 8.6
2017-Nov-10 23:30N 54°01' E 009°18'2 3.6
2017-Nov-10 22:56N 54°03' E 009°18'3 5.6
2017-Nov-10 22:27N 54°05' E 009°19'3 7.2
2017-Nov-10 22:00N 54°09' E 009°21'4 8.0
2017-Nov-10 21:30N 54°10' E 009°27'4 8.4
2017-Nov-10 21:00N 54°12' E 009°33'4 7.7
2017-Nov-10 20:30N 54°15' E 009°37'4 7.5
2017-Nov-10 20:00N 54°18' E 009°42'4 8.5
2017-Nov-10 19:30N 54°21' E 009°46'31 3.4
2017-Nov-10 10:18N 54°34' E 010°34'310.9
2017-Nov-10 10:00N 54°35' E 010°40'510.8
2017-Nov-10 09:30N 54°35' E 010°49'611.2
2017-Nov-10 09:00N 54°36' E 010°59'611.0
2017-Nov-10 08:30N 54°36' E 011°08'611.2
2017-Nov-10 08:00N 54°35' E 011°17'611.5
2017-Nov-10 07:30N 54°33' E 011°27'510.6
2017-Nov-10 07:00N 54°31' E 011°35'510.5
2017-Nov-10 06:30N 54°29' E 011°44'510.7
2017-Nov-10 06:00N 54°27' E 011°53'1010.2
2017-Nov-10 05:00N 54°27' E 012°10'510.7
2017-Nov-10 04:30N 54°32' E 012°13'71 9.7
2017-Nov-09 21:09N 55°05' E 014°03'2 8.6
2017-Nov-09 20:58N 55°06' E 014°05'6 8.7
2017-Nov-09 20:16N 55°10' E 014°12'2 9.2
2017-Nov-09 20:00N 55°12' E 014°15'4 9.2
2017-Nov-09 19:30N 55°16' E 014°20'5 9.7
2017-Nov-09 19:00N 55°19' E 014°26'5 9.3
2017-Nov-09 18:28N 55°23' E 014°31'4 8.7
2017-Nov-09 17:59N 55°26' E 014°36'5 9.9
2017-Nov-09 17:30N 55°29' E 014°44'510.1
2017-Nov-09 17:00N 55°31' E 014°51'510.3
2017-Nov-09 16:29N 55°34' E 014°59'510.3
2017-Nov-09 16:00N 55°36' E 015°07'510.4
2017-Nov-09 15:30N 55°39' E 015°15'510.6
2017-Nov-09 15:00N 55°41' E 015°23'510.6
2017-Nov-09 14:30N 55°44' E 015°31'510.6
2017-Nov-09 14:00N 55°47' E 015°39'510.6
2017-Nov-09 13:30N 55°50' E 015°47'510.8
2017-Nov-09 13:00N 55°53' E 015°55'510.8
2017-Nov-09 12:30N 55°55' E 016°03'510.9
2017-Nov-09 12:00N 55°58' E 016°12'510.9
2017-Nov-09 11:30N 56°01' E 016°20'511.0
2017-Nov-09 11:00N 56°04' E 016°29'611.1
2017-Nov-09 10:30N 56°07' E 016°37'811.3
2017-Nov-09 09:49N 56°11' E 016°48'611.0
2017-Nov-09 09:19N 56°15' E 016°56'410.9
2017-Nov-09 09:00N 56°17' E 017°01'611.0
2017-Nov-09 08:25N 56°21' E 017°10'511.1
2017-Nov-09 08:00N 56°23' E 017°17'711.3
2017-Nov-09 07:24N 56°27' E 017°27'511.0
2017-Nov-09 06:58N 56°30' E 017°34'511.1
2017-Nov-09 06:30N 56°33' E 017°41'611.1
2017-Nov-09 06:00N 56°37' E 017°49'811.6
2017-Nov-09 05:20N 56°42' E 018°00'1711.4
2017-Nov-09 03:51N 56°52' E 018°25'411.6
2017-Nov-09 03:28N 56°55' E 018°30'511.5
2017-Nov-09 03:00N 56°59' E 018°37'611.5
2017-Nov-09 02:30N 57°04' E 018°43'21511.3
2017-Nov-08 07:29N 59°29' E 023°45'611.6
2017-Nov-08 07:00N 59°32' E 023°55'611.3
2017-Nov-08 06:30N 59°34' E 024°05'711.1
2017-Nov-08 05:51N 59°37' E 024°18'411.1
2017-Nov-08 05:30N 59°39' E 024°25'611.2
2017-Nov-08 05:00N 59°42' E 024°34'611.3
2017-Nov-08 04:30N 59°44' E 024°45'611.4
2017-Nov-08 04:00N 59°45' E 024°56'611.0
2017-Nov-08 03:30N 59°47' E 025°06'510.9
2017-Nov-08 03:00N 59°48' E 025°17'611.1
2017-Nov-08 02:30N 59°51' E 025°26'611.1
2017-Nov-08 01:58N 59°53' E 025°37'2212.7
2017-Nov-08 00:14N 60°07' E 026°12'2 7.4
2017-Nov-08 00:00N 60°08' E 026°15'611.6
2017-Nov-07 23:30N 60°12' E 026°23'5 9.2
2017-Nov-07 23:00N 60°16' E 026°28'3 5.4
2017-Nov-07 22:30N 60°18' E 026°32'611.3
2017-Nov-07 22:00N 60°21' E 026°40'611.1
2017-Nov-07 21:30N 60°24' E 026°51'3 5.9
2017-Nov-07 21:00N 60°26' E 026°55'0 0.0
2017-Nov-07 20:29N 60°26' E 026°55'0 0.0
2017-Nov-07 19:59N 60°26' E 026°55'0 0.0
2017-Nov-07 19:29N 60°26' E 026°55'0 0.0
2017-Nov-07 18:59N 60°26' E 026°55'0 0.0
2017-Nov-07 18:29N 60°26' E 026°55'0 0.0
2017-Nov-07 17:59N 60°26' E 026°55'0 0.0
2017-Nov-07 17:29N 60°26' E 026°55'0 0.0
2017-Nov-07 16:59N 60°26' E 026°55'0 0.0
2017-Nov-07 16:29N 60°26' E 026°55'0 0.0
2017-Nov-07 15:59N 60°26' E 026°55'0 0.0
2017-Nov-07 15:29N 60°26' E 026°55'0 0.0
2017-Nov-07 14:59N 60°26' E 026°55'0 0.0
2017-Nov-07 14:29N 60°26' E 026°55'0 0.0
2017-Nov-07 13:59N 60°26' E 026°55'0 0.0
2017-Nov-07 13:29N 60°26' E 026°55'0 0.0
2017-Nov-07 12:58N 60°26' E 026°55'0 0.0
2017-Nov-07 12:28N 60°26' E 026°55'0 0.0
2017-Nov-07 11:58N 60°26' E 026°55'0 0.0
2017-Nov-07 11:28N 60°26' E 026°55'0 0.0
2017-Nov-07 10:58N 60°26' E 026°55'0 0.0
2017-Nov-07 10:28N 60°26' E 026°55'0 0.0
2017-Nov-07 09:58N 60°26' E 026°55'0 0.0
2017-Nov-07 09:28N 60°26' E 026°55'0 0.0
2017-Nov-07 08:58N 60°26' E 026°55'0 0.0
2017-Nov-07 08:29N 60°26' E 026°55'0 0.0
2017-Nov-07 07:59N 60°26' E 026°55'0 0.0
2017-Nov-07 07:29N 60°26' E 026°55'0 0.0
2017-Nov-07 06:58N 60°26' E 026°55'0 0.0
2017-Nov-07 06:28N 60°26' E 026°55'0 0.0
2017-Nov-07 05:58N 60°26' E 026°55'0 0.0
2017-Nov-07 05:29N 60°26' E 026°55'0 0.0
2017-Nov-07 05:00N 60°26' E 026°55'0 0.0
2017-Nov-07 04:28N 60°26' E 026°55'0 0.0
2017-Nov-07 03:58N 60°26' E 026°55'0 0.0
2017-Nov-07 03:28N 60°26' E 026°55'0 0.0
2017-Nov-07 02:58N 60°26' E 026°55'0 0.0
2017-Nov-07 02:29N 60°26' E 026°55'0 0.0
2017-Nov-07 02:00N 60°26' E 026°55'0 0.0
2017-Nov-07 01:29N 60°26' E 026°55'0 0.0
2017-Nov-07 01:00N 60°26' E 026°55'0 0.0
2017-Nov-07 00:28N 60°26' E 026°55'0 0.0
2017-Nov-06 23:58N 60°26' E 026°55'0 0.0
2017-Nov-06 23:28N 60°26' E 026°55'0 0.0
2017-Nov-06 22:58N 60°26' E 026°55'0 0.0
2017-Nov-06 22:28N 60°26' E 026°55'0 0.0
2017-Nov-06 21:58N 60°26' E 026°55'0 0.0
2017-Nov-06 21:28N 60°26' E 026°55'0 0.0
2017-Nov-06 20:58N 60°26' E 026°55'0 0.0
2017-Nov-06 20:28N 60°26' E 026°55'  
Track history (hours):
 
Tides and Currents Weather Stations Pressure Air Temp Water Temp Dewpoint Dewpoint Depression Visibility Wind Speed Wind Dir Waves Ship Positions

Antonia B

Last reported at 2017-Nov-16 12:36 UTC. Time now 2017-Nov-18 10:17 UTC.
Position N 36°33' W 009°12'.

Length 97 m; draft 6.7 m.

Type: Cargo ship. MMSI: 305201000.

Date/timePositionNaut miles runAvg speedWind from/ knotsBaromVisibWave heightAir tempDewpointWater temp
2017-Nov-16 12:36N 36°33' W 009°12'211.9
2017-Nov-16 12:27N 36°34' W 009°14'511.3
2017-Nov-16 11:58N 36°37' W 009°20'2211.8
2017-Nov-16 10:06N 36°55' W 009°34'112.3
2017-Nov-16 10:00N 36°57' W 009°34'612.3
2017-Nov-16 09:30N 37°03' W 009°36'612.2
2017-Nov-16 08:59N 37°09' W 009°38'1712.2
2017-Nov-16 07:35N 37°25' W 009°43'112.3
2017-Nov-16 07:30N 37°27' W 009°43'612.2
2017-Nov-16 07:00N 37°32' W 009°45'812.5
2017-Nov-16 06:21N 37°40' W 009°48'512.4
2017-Nov-16 05:58N 37°45' W 009°49'912.4
2017-Nov-16 05:13N 37°54' W 009°52'312.1
2017-Nov-16 05:00N 37°56' W 009°53'612.3
2017-Nov-16 04:30N 38°02' W 009°55'612.2
2017-Nov-16 04:01N 38°08' W 009°57'712.4
2017-Nov-16 03:25N 38°15' W 009°59'512.5
2017-Nov-16 03:00N 38°20' W 009°60'612.4
2017-Nov-16 02:30N 38°26' W 010°01'612.1
2017-Nov-16 02:00N 38°32' W 010°03'611.7
2017-Nov-16 01:30N 38°38' W 010°05'612.2
2017-Nov-16 01:00N 38°44' W 010°06'612.0
2017-Nov-16 00:30N 38°50' W 010°06'612.1
2017-Nov-16 00:00N 38°56' W 010°06'611.9
2017-Nov-15 23:30N 39°02' W 010°07'612.0
2017-Nov-15 23:00N 39°08' W 010°07'612.2
2017-Nov-15 22:30N 39°14' W 010°07'612.1
2017-Nov-15 22:00N 39°20' W 010°07'612.4
2017-Nov-15 21:30N 39°26' W 010°07'612.3
2017-Nov-15 21:00N 39°33' W 010°07'612.3
2017-Nov-15 20:30N 39°39' W 010°07'812.1
2017-Nov-15 19:52N 39°46' W 010°07'512.3
2017-Nov-15 19:29N 39°51' W 010°07'49011.6
2017-Nov-14 01:09N 47°39' W 006°49'611.2
2017-Nov-14 00:38N 47°44' W 006°45'211.0
2017-Nov-14 00:27N 47°46' W 006°43'510.9
2017-Nov-13 23:58N 47°51' W 006°40'510.8
2017-Nov-13 23:30N 47°55' W 006°36'910.8
2017-Nov-13 22:40N 48°03' W 006°31'27811.2
2017-Nov-12 21:46N 50°27' W 000°26'312.2
2017-Nov-12 21:31N 50°28' W 000°21'611.9
2017-Nov-12 21:01N 50°29' W 000°12'611.7
2017-Nov-12 20:30N 50°31' W 000°04'611.6
2017-Nov-12 20:00N 50°33' E 000°05'611.3
2017-Nov-12 19:31N 50°35' E 000°14'611.1
2017-Nov-12 19:01N 50°36' E 000°22'510.8
2017-Nov-12 18:30N 50°38' E 000°30'510.4
2017-Nov-12 18:00N 50°40' E 000°37'510.8
2017-Nov-12 17:30N 50°43' E 000°44'510.7
2017-Nov-12 17:00N 50°46' E 000°51'511.0
2017-Nov-12 16:31N 50°49' E 000°58'611.2
2017-Nov-12 16:00N 50°53' E 001°06'611.6
2017-Nov-12 15:30N 50°57' E 001°13'612.2
2017-Nov-12 15:00N 51°01' E 001°20'612.8
2017-Nov-12 14:30N 51°05' E 001°28'612.9
2017-Nov-12 14:01N 51°08' E 001°36'612.2
2017-Nov-12 13:31N 51°13' E 001°43'611.7
2017-Nov-12 13:01N 51°17' E 001°48'611.8
2017-Nov-12 12:30N 51°23' E 001°52'611.1
2017-Nov-12 12:00N 51°28' E 001°57'510.5
2017-Nov-12 11:30N 51°32' E 002°02'510.1
2017-Nov-12 11:00N 51°35' E 002°08'5 9.9
2017-Nov-12 10:27N 51°39' E 002°13'6 9.6
2017-Nov-12 09:53N 51°44' E 002°19'238 9.3
2017-Nov-11 08:17N 54°01' E 007°41'3 8.8
2017-Nov-11 08:00N 54°01' E 007°46'4 8.7
2017-Nov-11 07:30N 54°01' E 007°53'4 8.5
2017-Nov-11 07:00N 54°01' E 007°60'5 9.0
2017-Nov-11 06:29N 54°01' E 008°08'5 9.3
2017-Nov-11 05:59N 54°00' E 008°16'510.2
2017-Nov-11 05:29N 53°59' E 008°24'510.4
2017-Nov-11 05:00N 53°58' E 008°33'4 8.7
2017-Nov-11 04:30N 53°56' E 008°39'2 4.5
2017-Nov-11 04:00N 53°54' E 008°41'4 7.7
2017-Nov-11 03:30N 53°51' E 008°45'4 8.0
2017-Nov-11 03:00N 53°50' E 008°52'4 8.9
2017-Nov-11 02:30N 53°51' E 008°59'5 9.7
2017-Nov-11 02:00N 53°53' E 009°07'1 2.4
2017-Nov-11 01:30N 53°54' E 009°09'0 0.0
2017-Nov-11 00:57N 53°54' E 009°09'1 1.9
2017-Nov-11 00:30N 53°54' E 009°10'4 7.7
2017-Nov-11 00:00N 53°57' E 009°14'4 8.6
2017-Nov-10 23:30N 54°01' E 009°18'2 3.6
2017-Nov-10 22:56N 54°03' E 009°18'3 5.6
2017-Nov-10 22:27N 54°05' E 009°19'3 7.2
2017-Nov-10 22:00N 54°09' E 009°21'4 8.0
2017-Nov-10 21:30N 54°10' E 009°27'4 8.4
2017-Nov-10 21:00N 54°12' E 009°33'4 7.7
2017-Nov-10 20:30N 54°15' E 009°37'4 7.5
2017-Nov-10 20:00N 54°18' E 009°42'4 8.5
2017-Nov-10 19:30N 54°21' E 009°46'31 3.4
2017-Nov-10 10:18N 54°34' E 010°34'310.9
2017-Nov-10 10:00N 54°35' E 010°40'510.8
2017-Nov-10 09:30N 54°35' E 010°49'611.2
2017-Nov-10 09:00N 54°36' E 010°59'611.0
2017-Nov-10 08:30N 54°36' E 011°08'611.2
2017-Nov-10 08:00N 54°35' E 011°17'611.5
2017-Nov-10 07:30N 54°33' E 011°27'510.6
2017-Nov-10 07:00N 54°31' E 011°35'510.5
2017-Nov-10 06:30N 54°29' E 011°44'510.7
2017-Nov-10 06:00N 54°27' E 011°53'1010.2
2017-Nov-10 05:00N 54°27' E 012°10'510.7
2017-Nov-10 04:30N 54°32' E 012°13'71 9.7
2017-Nov-09 21:09N 55°05' E 014°03'2 8.6
2017-Nov-09 20:58N 55°06' E 014°05'6 8.7
2017-Nov-09 20:16N 55°10' E 014°12'2 9.2
2017-Nov-09 20:00N 55°12' E 014°15'4 9.2
2017-Nov-09 19:30N 55°16' E 014°20'5 9.7
2017-Nov-09 19:00N 55°19' E 014°26'5 9.3
2017-Nov-09 18:28N 55°23' E 014°31'4 8.7
2017-Nov-09 17:59N 55°26' E 014°36'5 9.9
2017-Nov-09 17:30N 55°29' E 014°44'510.1
2017-Nov-09 17:00N 55°31' E 014°51'510.3
2017-Nov-09 16:29N 55°34' E 014°59'510.3
2017-Nov-09 16:00N 55°36' E 015°07'510.4
2017-Nov-09 15:30N 55°39' E 015°15'510.6
2017-Nov-09 15:00N 55°41' E 015°23'510.6
2017-Nov-09 14:30N 55°44' E 015°31'510.6
2017-Nov-09 14:00N 55°47' E 015°39'510.6
2017-Nov-09 13:30N 55°50' E 015°47'510.8
2017-Nov-09 13:00N 55°53' E 015°55'510.8
2017-Nov-09 12:30N 55°55' E 016°03'510.9
2017-Nov-09 12:00N 55°58' E 016°12'510.9
2017-Nov-09 11:30N 56°01' E 016°20'511.0
2017-Nov-09 11:00N 56°04' E 016°29'611.1
2017-Nov-09 10:30N 56°07' E 016°37'811.3
2017-Nov-09 09:49N 56°11' E 016°48'611.0
2017-Nov-09 09:19N 56°15' E 016°56'410.9
2017-Nov-09 09:00N 56°17' E 017°01'611.0
2017-Nov-09 08:25N 56°21' E 017°10'511.1
2017-Nov-09 08:00N 56°23' E 017°17'711.3
2017-Nov-09 07:24N 56°27' E 017°27'511.0
2017-Nov-09 06:58N 56°30' E 017°34'511.1
2017-Nov-09 06:30N 56°33' E 017°41'611.1
2017-Nov-09 06:00N 56°37' E 017°49'811.6
2017-Nov-09 05:20N 56°42' E 018°00'1711.4
2017-Nov-09 03:51N 56°52' E 018°25'411.6
2017-Nov-09 03:28N 56°55' E 018°30'511.5
2017-Nov-09 03:00N 56°59' E 018°37'611.5
2017-Nov-09 02:30N 57°04' E 018°43'21511.3
2017-Nov-08 07:29N 59°29' E 023°45'611.6
2017-Nov-08 07:00N 59°32' E 023°55'611.3
2017-Nov-08 06:30N 59°34' E 024°05'711.1
2017-Nov-08 05:51N 59°37' E 024°18'411.1
2017-Nov-08 05:30N 59°39' E 024°25'611.2
2017-Nov-08 05:00N 59°42' E 024°34'611.3
2017-Nov-08 04:30N 59°44' E 024°45'611.4
2017-Nov-08 04:00N 59°45' E 024°56'611.0
2017-Nov-08 03:30N 59°47' E 025°06'510.9
2017-Nov-08 03:00N 59°48' E 025°17'611.1
2017-Nov-08 02:30N 59°51' E 025°26'611.1
2017-Nov-08 01:58N 59°53' E 025°37'2212.7
2017-Nov-08 00:14N 60°07' E 026°12'2 7.4
2017-Nov-08 00:00N 60°08' E 026°15'611.6
2017-Nov-07 23:30N 60°12' E 026°23'5 9.2
2017-Nov-07 23:00N 60°16' E 026°28'3 5.4
2017-Nov-07 22:30N 60°18' E 026°32'611.3
2017-Nov-07 22:00N 60°21' E 026°40'611.1
2017-Nov-07 21:30N 60°24' E 026°51'3 5.9
2017-Nov-07 21:00N 60°26' E 026°55'0 0.0
2017-Nov-07 20:29N 60°26' E 026°55'0 0.0
2017-Nov-07 19:59N 60°26' E 026°55'0 0.0
2017-Nov-07 19:29N 60°26' E 026°55'0 0.0
2017-Nov-07 18:59N 60°26' E 026°55'0 0.0
2017-Nov-07 18:29N 60°26' E 026°55'0 0.0
2017-Nov-07 17:59N 60°26' E 026°55'0 0.0
2017-Nov-07 17:29N 60°26' E 026°55'0 0.0
2017-Nov-07 16:59N 60°26' E 026°55'0 0.0
2017-Nov-07 16:29N 60°26' E 026°55'0 0.0
2017-Nov-07 15:59N 60°26' E 026°55'0 0.0
2017-Nov-07 15:29N 60°26' E 026°55'0 0.0
2017-Nov-07 14:59N 60°26' E 026°55'0 0.0
2017-Nov-07 14:29N 60°26' E 026°55'0 0.0
2017-Nov-07 13:59N 60°26' E 026°55'0 0.0
2017-Nov-07 13:29N 60°26' E 026°55'0 0.0
2017-Nov-07 12:58N 60°26' E 026°55'0 0.0
2017-Nov-07 12:28N 60°26' E 026°55'0 0.0
2017-Nov-07 11:58N 60°26' E 026°55'0 0.0
2017-Nov-07 11:28N 60°26' E 026°55'0 0.0
2017-Nov-07 10:58N 60°26' E 026°55'0 0.0
2017-Nov-07 10:28N 60°26' E 026°55'0 0.0
2017-Nov-07 09:58N 60°26' E 026°55'0 0.0
2017-Nov-07 09:28N 60°26' E 026°55'0 0.0
2017-Nov-07 08:58N 60°26' E 026°55'0 0.0
2017-Nov-07 08:29N 60°26' E 026°55'0 0.0
2017-Nov-07 07:59N 60°26' E 026°55'0 0.0
2017-Nov-07 07:29N 60°26' E 026°55'0 0.0
2017-Nov-07 06:58N 60°26' E 026°55'0 0.0
2017-Nov-07 06:28N 60°26' E 026°55'0 0.0
2017-Nov-07 05:58N 60°26' E 026°55'0 0.0
2017-Nov-07 05:29N 60°26' E 026°55'0 0.0
2017-Nov-07 05:00N 60°26' E 026°55'0 0.0
2017-Nov-07 04:28N 60°26' E 026°55'0 0.0
2017-Nov-07 03:58N 60°26' E 026°55'0 0.0
2017-Nov-07 03:28N 60°26' E 026°55'0 0.0
2017-Nov-07 02:58N 60°26' E 026°55'0 0.0
2017-Nov-07 02:29N 60°26' E 026°55'0 0.0
2017-Nov-07 02:00N 60°26' E 026°55'0 0.0
2017-Nov-07 01:29N 60°26' E 026°55'0 0.0
2017-Nov-07 01:00N 60°26' E 026°55'0 0.0
2017-Nov-07 00:28N 60°26' E 026°55'0 0.0
2017-Nov-06 23:58N 60°26' E 026°55'0 0.0
2017-Nov-06 23:28N 60°26' E 026°55'0 0.0
2017-Nov-06 22:58N 60°26' E 026°55'0 0.0
2017-Nov-06 22:28N 60°26' E 026°55'0 0.0
2017-Nov-06 21:58N 60°26' E 026°55'0 0.0
2017-Nov-06 21:28N 60°26' E 026°55'0 0.0
2017-Nov-06 20:58N 60°26' E 026°55'0 0.0
2017-Nov-06 20:28N 60°26' E 026°55'  

Dump ship's entire track history